Time,TemperatureF,DewpointF,PressureIn,WindDirection,WindDirectionDegrees,WindSpeedMPH,WindSpeedGustMPH,Humidity,HourlyPrecipIn,Conditions,Clouds,dailyrainin,SoftwareType,DateUTC
2013-02-24 00:02:00,29.5,26.1,29.82,WNW,289,1.0,2.5,87,0.00,,---,0.03,VWS V14.01,2013-02-24 07:02:00,
2013-02-24 00:07:00,29.5,26.1,29.82,WNW,303,1.0,3.8,87,0.00,,---,0.03,VWS V14.01,2013-02-24 07:07:00,
2013-02-24 00:12:00,29.4,26.0,29.82,NW,306,0.0,1.2,87,0.00,,---,0.03,VWS V14.01,2013-02-24 07:12:00,
2013-02-24 00:17:00,29.4,26.0,29.83,WNW,302,0.0,2.5,87,0.00,,---,0.03,VWS V14.01,2013-02-24 07:17:00,
2013-02-24 00:22:00,29.4,26.0,29.83,WNW,292,2.0,2.5,87,0.00,,---,0.03,VWS V14.01,2013-02-24 07:22:00,
2013-02-24 00:27:00,29.4,26.0,29.83,WNW,302,2.0,2.5,87,0.00,,---,0.03,VWS V14.01,2013-02-24 07:27:00,
2013-02-24 00:32:00,29.4,26.0,29.83,WNW,289,0.0,2.5,87,0.00,,---,0.03,VWS V14.01,2013-02-24 07:32:00,
2013-02-24 00:37:00,29.3,25.9,29.83,WNW,302,0.0,2.5,87,0.00,,---,0.03,VWS V14.01,2013-02-24 07:37:00,
2013-02-24 00:42:00,29.3,25.9,29.83,WNW,290,2.0,2.5,87,0.00,,---,0.03,VWS V14.01,2013-02-24 07:42:00,
2013-02-24 00:47:00,29.1,25.7,29.83,WNW,296,1.0,2.5,87,0.00,,---,0.03,VWS V14.01,2013-02-24 07:47:00,
2013-02-24 00:53:00,29.1,25.7,29.83,WNW,285,0.0,1.2,87,0.00,,---,0.03,VWS V14.01,2013-02-24 07:53:00,
2013-02-24 00:58:00,29.0,25.6,29.83,WNW,292,0.0,2.5,87,0.00,,---,0.03,VWS V14.01,2013-02-24 07:58:00,
2013-02-24 01:03:00,29.0,25.4,29.84,WNW,289,1.0,2.5,86,0.00,,---,0.03,VWS V14.01,2013-02-24 08:03:00,
2013-02-24 01:08:00,28.8,25.4,29.84,WNW,287,0.0,2.5,87,0.00,,---,0.03,VWS V14.01,2013-02-24 08:08:00,
2013-02-24 01:13:00,28.8,25.4,29.84,WNW,286,1.0,1.2,87,0.00,,---,0.03,VWS V14.01,2013-02-24 08:13:00,
2013-02-24 01:18:00,28.8,25.4,29.82,WNW,302,0.0,2.5,87,0.00,,---,0.03,VWS V14.01,2013-02-24 08:18:00,
2013-02-24 01:23:00,28.8,25.7,29.82,NW,309,1.0,2.5,88,0.00,,---,0.03,VWS V14.01,2013-02-24 08:23:00,
2013-02-24 01:28:00,28.7,25.3,29.82,NW,307,2.0,2.5,87,0.00,,---,0.03,VWS V14.01,2013-02-24 08:28:00,
2013-02-24 01:33:00,28.7,25.3,29.82,WNW,303,1.0,2.5,87,0.00,,---,0.03,VWS V14.01,2013-02-24 08:33:00,
2013-02-24 01:38:00,28.5,25.1,29.82,NW,309,0.0,2.5,87,0.00,,---,0.03,VWS V14.01,2013-02-24 08:38:00,
2013-02-24 01:43:00,28.4,25.0,29.82,WNW,290,1.0,2.5,87,0.00,,---,0.03,VWS V14.01,2013-02-24 08:43:00,
2013-02-24 01:48:00,28.4,25.0,29.83,WNW,289,1.0,2.5,87,0.00,,---,0.03,VWS V14.01,2013-02-24 08:48:00,
2013-02-24 01:53:00,28.4,25.0,29.83,WNW,285,1.0,2.5,87,0.00,,---,0.03,VWS V14.01,2013-02-24 08:53:00,
2013-02-24 01:58:00,28.2,24.8,29.83,WNW,282,1.0,1.2,87,0.00,,---,0.03,VWS V14.01,2013-02-24 08:58:00,
2013-02-24 02:03:00,28.2,24.8,29.83,West,273,1.0,2.5,87,0.00,,---,0.03,VWS V14.01,2013-02-24 09:03:00,
2013-02-24 02:09:00,28.2,24.8,29.83,West,280,0.0,2.5,87,0.00,,---,0.03,VWS V14.01,2013-02-24 09:09:00,
2013-02-24 02:14:00,28.1,24.7,29.83,WNW,303,0.0,2.5,87,0.00,,---,0.03,VWS V14.01,2013-02-24 09:14:00,
2013-02-24 02:19:00,28.1,24.7,29.81,WNW,297,1.0,2.5,87,0.00,,---,0.03,VWS V14.01,2013-02-24 09:19:00,
2013-02-24 02:24:00,28.1,24.7,29.81,WNW,303,0.0,2.5,87,0.00,,---,0.03,VWS V14.01,2013-02-24 09:24:00,
2013-02-24 02:29:00,28.1,24.7,29.81,WNW,289,0.0,3.8,87,0.00,,---,0.03,VWS V14.01,2013-02-24 09:29:00,
2013-02-24 02:34:00,28.1,24.7,29.81,WNW,302,2.0,2.5,87,0.00,,---,0.03,VWS V14.01,2013-02-24 09:34:00,
2013-02-24 02:39:00,28.2,24.8,29.81,WNW,302,0.0,2.5,87,0.00,,---,0.03,VWS V14.01,2013-02-24 09:39:00,
2013-02-24 02:44:00,28.2,24.8,29.81,WNW,300,0.0,2.5,87,0.00,,---,0.03,VWS V14.01,2013-02-24 09:44:00,
2013-02-24 02:49:00,28.4,25.0,29.81,NW,316,0.0,2.5,87,0.00,,---,0.03,VWS V14.01,2013-02-24 09:49:00,
2013-02-24 02:54:00,28.5,25.1,29.81,WNW,303,0.0,3.8,87,0.00,,---,0.03,VWS V14.01,2013-02-24 09:54:00,
2013-02-24 02:59:00,28.5,25.1,29.81,WNW,303,0.0,2.5,87,0.00,,---,0.03,VWS V14.01,2013-02-24 09:59:00,
2013-02-24 03:04:00,28.5,25.1,29.81,WNW,299,0.0,2.5,87,0.00,,---,0.03,VWS V14.01,2013-02-24 10:04:00,
2013-02-24 03:09:00,28.5,25.1,29.81,WNW,302,2.0,3.8,87,0.00,,---,0.03,VWS V14.01,2013-02-24 10:09:00,
2013-02-24 03:14:00,28.7,25.3,29.81,WNW,296,1.0,2.5,87,0.00,,---,0.03,VWS V14.01,2013-02-24 10:14:00,
2013-02-24 03:19:00,28.7,25.3,29.81,WNW,303,2.0,3.8,87,0.00,,---,0.03,VWS V14.01,2013-02-24 10:19:00,
2013-02-24 03:24:00,28.7,25.3,29.81,WNW,303,0.0,2.5,87,0.00,,---,0.03,VWS V14.01,2013-02-24 10:24:00,
2013-02-24 03:29:00,28.7,25.3,29.81,NW,310,1.0,2.5,87,0.00,,---,0.03,VWS V14.01,2013-02-24 10:29:00,
2013-02-24 03:34:00,28.7,25.3,29.81,NW,304,0.0,2.5,87,0.00,,---,0.03,VWS V14.01,2013-02-24 10:34:00,
2013-02-24 03:39:00,28.7,25.3,29.81,WNW,303,1.0,1.2,87,0.00,,---,0.03,VWS V14.01,2013-02-24 10:39:00,
2013-02-24 03:44:00,28.7,25.3,29.82,WNW,303,0.0,2.5,87,0.00,,---,0.03,VWS V14.01,2013-02-24 10:44:00,
2013-02-24 03:50:00,28.7,25.3,29.82,WNW,303,0.0,2.5,87,0.00,,---,0.03,VWS V14.01,2013-02-24 10:50:00,
2013-02-24 03:55:00,28.7,25.3,29.82,West,279,0.0,2.5,87,0.00,,---,0.03,VWS V14.01,2013-02-24 10:55:00,
2013-02-24 04:00:00,28.7,25.3,29.82,West,280,1.0,2.5,87,0.00,,---,0.03,VWS V14.01,2013-02-24 11:00:00,
2013-02-24 04:05:00,28.7,25.3,29.82,West,280,1.0,1.2,87,0.00,,---,0.03,VWS V14.01,2013-02-24 11:05:00,
2013-02-24 04:10:00,28.7,25.3,29.82,West,280,1.0,2.5,87,0.00,,---,0.03,VWS V14.01,2013-02-24 11:10:00,
2013-02-24 04:15:00,28.7,25.3,29.82,WNW,289,0.0,2.5,87,0.00,,---,0.03,VWS V14.01,2013-02-24 11:15:00,
2013-02-24 04:20:00,28.8,25.4,29.82,WNW,289,0.0,2.5,87,0.00,,---,0.03,VWS V14.01,2013-02-24 11:20:00,
2013-02-24 04:25:00,28.8,25.4,29.82,WNW,289,0.0,1.2,87,0.00,,---,0.03,VWS V14.01,2013-02-24 11:25:00,
2013-02-24 04:30:00,28.8,25.4,29.83,WNW,289,0.0,0.0,87,0.00,,---,0.03,VWS V14.01,2013-02-24 11:30:00,
2013-02-24 04:35:00,28.8,25.4,29.83,WNW,289,0.0,0.0,87,0.00,,---,0.03,VWS V14.01,2013-02-24 11:35:00,
2013-02-24 04:40:00,28.8,25.4,29.83,WNW,289,0.0,0.0,87,0.00,,---,0.03,VWS V14.01,2013-02-24 11:40:00,
2013-02-24 04:45:00,28.8,25.4,29.84,WNW,289,0.0,0.0,87,0.00,,---,0.03,VWS V14.01,2013-02-24 11:45:00,
2013-02-24 04:50:00,28.8,25.4,29.84,WNW,290,0.0,0.0,87,0.00,,---,0.03,VWS V14.01,2013-02-24 11:50:00,
2013-02-24 04:55:00,28.8,25.4,29.84,WNW,289,0.0,0.0,87,0.00,,---,0.03,VWS V14.01,2013-02-24 11:55:00,
2013-02-24 05:00:00,28.8,25.4,29.84,WNW,289,0.0,0.0,87,0.00,,---,0.03,VWS V14.01,2013-02-24 12:00:00,
2013-02-24 05:05:00,28.8,25.4,29.84,WNW,289,0.0,0.0,87,0.00,,---,0.03,VWS V14.01,2013-02-24 12:05:00,
2013-02-24 05:10:00,28.8,25.4,29.84,WNW,289,0.0,0.0,87,0.00,,---,0.03,VWS V14.01,2013-02-24 12:10:00,
2013-02-24 05:15:00,28.7,25.3,29.88,WNW,289,0.0,0.0,87,0.00,,---,0.03,VWS V14.01,2013-02-24 12:15:00,
2013-02-24 05:20:00,28.7,25.3,29.88,WNW,289,0.0,0.0,87,0.00,,---,0.03,VWS V14.01,2013-02-24 12:20:00,
2013-02-24 05:25:00,28.7,25.3,29.88,WNW,289,0.0,0.0,87,0.00,,---,0.03,VWS V14.01,2013-02-24 12:25:00,
2013-02-24 05:30:00,28.7,25.3,29.88,WNW,290,0.0,2.5,87,0.00,,---,0.03,VWS V14.01,2013-02-24 12:30:00,
2013-02-24 05:35:00,28.7,25.3,29.88,WNW,289,0.0,1.2,87,0.00,,---,0.03,VWS V14.01,2013-02-24 12:35:00,
2013-02-24 05:41:00,28.5,25.1,29.88,WNW,289,0.0,0.0,87,0.00,,---,0.03,VWS V14.01,2013-02-24 12:41:00,
2013-02-24 05:46:00,28.5,25.1,29.88,WNW,289,0.0,0.0,87,0.00,,---,0.03,VWS V14.01,2013-02-24 12:46:00,
2013-02-24 05:51:00,28.4,25.0,29.88,WNW,289,0.0,0.0,87,0.00,,---,0.03,VWS V14.01,2013-02-24 12:51:00,
2013-02-24 05:56:00,28.2,24.8,29.88,WNW,289,0.0,0.0,87,0.00,,---,0.03,VWS V14.01,2013-02-24 12:56:00,
2013-02-24 06:01:00,28.2,24.8,29.89,WNW,289,0.0,0.0,87,0.00,,---,0.03,VWS V14.01,2013-02-24 13:01:00,
2013-02-24 06:06:00,28.4,25.0,29.89,WNW,289,0.0,0.0,87,0.00,,---,0.03,VWS V14.01,2013-02-24 13:06:00,
2013-02-24 06:11:00,28.5,25.1,29.89,WNW,289,0.0,0.0,87,0.00,,---,0.03,VWS V14.01,2013-02-24 13:11:00,
2013-02-24 06:16:00,28.7,25.3,29.89,WNW,289,0.0,1.2,87,0.00,,---,0.03,VWS V14.01,2013-02-24 13:16:00,
2013-02-24 06:21:00,28.7,25.6,29.89,WNW,289,0.0,0.0,88,0.00,,---,0.03,VWS V14.01,2013-02-24 13:21:00,
2013-02-24 06:26:00,28.7,25.6,29.89,West,279,1.0,2.5,88,0.00,,---,0.03,VWS V14.01,2013-02-24 13:26:00,
2013-02-24 06:31:00,28.8,25.7,29.90,West,279,0.0,1.2,88,0.00,,---,0.03,VWS V14.01,2013-02-24 13:31:00,
2013-02-24 06:37:00,28.8,25.7,29.90,WNW,303,0.0,2.5,88,0.00,,---,0.03,VWS V14.01,2013-02-24 13:37:00,
2013-02-24 06:42:00,28.8,25.7,29.90,NW,313,0.0,3.8,88,0.00,,---,0.03,VWS V14.01,2013-02-24 13:42:00,
2013-02-24 06:47:00,29.0,25.6,29.91,WNW,303,1.0,2.5,87,0.00,,---,0.03,VWS V14.01,2013-02-24 13:47:00,
2013-02-24 06:52:00,29.0,25.9,29.91,NW,309,2.0,3.8,88,0.00,,---,0.03,VWS V14.01,2013-02-24 13:52:00,
2013-02-24 06:57:00,29.0,25.9,29.91,WNW,300,1.0,3.8,88,0.00,,---,0.03,VWS V14.01,2013-02-24 13:57:00,
2013-02-24 07:02:00,28.8,25.7,29.91,NW,306,2.0,8.8,88,0.00,,---,0.03,VWS V14.01,2013-02-24 14:02:00,
2013-02-24 07:07:00,28.8,25.7,29.91,WNW,286,1.0,2.5,88,0.00,,---,0.03,VWS V14.01,2013-02-24 14:07:00,
2013-02-24 07:12:00,28.8,26.0,29.91,NW,320,0.0,2.5,89,0.00,,---,0.03,VWS V14.01,2013-02-24 14:12:00,
2013-02-24 07:18:00,28.8,26.0,29.92,NW,317,2.0,2.5,89,0.00,,---,0.03,VWS V14.01,2013-02-24 14:18:00,
2013-02-24 07:23:00,28.8,25.7,29.92,West,266,3.0,3.8,88,0.00,,---,0.03,VWS V14.01,2013-02-24 14:23:00,
2013-02-24 07:28:00,28.7,25.6,29.92,WNW,302,1.0,3.8,88,0.00,,---,0.03,VWS V14.01,2013-02-24 14:28:00,
2013-02-24 07:33:00,28.7,25.6,29.93,NNW,335,1.0,3.8,88,0.00,,---,0.03,VWS V14.01,2013-02-24 14:33:00,
2013-02-24 07:38:00,28.7,25.6,29.93,WNW,302,0.0,5.0,88,0.00,,---,0.03,VWS V14.01,2013-02-24 14:38:00,
2013-02-24 07:43:00,28.8,25.7,29.93,WNW,303,1.0,3.8,88,0.00,,---,0.03,VWS V14.01,2013-02-24 14:43:00,
2013-02-24 07:48:00,28.7,25.6,29.94,WNW,303,1.0,3.8,88,0.00,,---,0.03,VWS V14.01,2013-02-24 14:48:00,
2013-02-24 07:53:00,28.7,25.6,29.94,NW,319,2.0,2.5,88,0.00,,---,0.03,VWS V14.01,2013-02-24 14:53:00,
2013-02-24 07:58:00,28.5,25.4,29.94,WNW,295,3.0,6.2,88,0.00,,---,0.03,VWS V14.01,2013-02-24 14:58:00,
2013-02-24 08:03:00,28.4,25.0,29.94,NW,304,2.0,3.8,87,0.00,,---,0.03,VWS V14.01,2013-02-24 15:03:00,
2013-02-24 08:09:00,28.1,24.7,29.94,WNW,302,2.0,8.8,87,0.00,,---,0.03,VWS V14.01,2013-02-24 15:09:00,
2013-02-24 08:14:00,27.9,24.5,29.94,WNW,302,2.0,8.8,87,0.00,,---,0.03,VWS V14.01,2013-02-24 15:14:00,
2013-02-24 08:19:00,28.1,24.7,29.95,NW,307,2.0,6.2,87,0.00,,---,0.03,VWS V14.01,2013-02-24 15:19:00,
2013-02-24 08:24:00,27.9,24.5,29.95,WNW,302,1.0,6.2,87,0.00,,---,0.03,VWS V14.01,2013-02-24 15:24:00,
2013-02-24 08:29:00,27.9,24.5,29.95,NW,314,2.0,8.8,87,0.00,,---,0.03,VWS V14.01,2013-02-24 15:29:00,
2013-02-24 08:34:00,27.8,24.4,29.96,WNW,303,10.0,12.5,87,0.00,,---,0.03,VWS V14.01,2013-02-24 15:34:00,
2013-02-24 08:39:00,27.5,23.9,29.96,NNW,333,7.0,23.8,86,0.00,,---,0.03,VWS V14.01,2013-02-24 15:39:00,
2013-02-24 08:44:00,27.2,23.6,29.97,WNW,287,10.0,17.5,86,0.00,,---,0.03,VWS V14.01,2013-02-24 15:44:00,
2013-02-24 08:49:00,27.0,23.6,29.97,West,275,5.0,16.2,87,0.00,,---,0.03,VWS V14.01,2013-02-24 15:49:00,
2013-02-24 08:54:00,26.9,23.8,29.97,WNW,295,5.0,21.2,88,0.00,,---,0.03,VWS V14.01,2013-02-24 15:54:00,
2013-02-24 08:59:00,26.7,23.6,29.98,NW,321,1.0,21.2,88,0.00,,---,0.03,VWS V14.01,2013-02-24 15:59:00,
2013-02-24 09:05:00,26.7,23.6,29.98,WNW,292,3.0,16.2,88,0.00,,---,0.03,VWS V14.01,2013-02-24 16:05:00,
2013-02-24 09:10:00,26.7,23.6,29.98,West,279,2.0,15.0,88,0.00,,---,0.03,VWS V14.01,2013-02-24 16:10:00,
2013-02-24 09:15:00,26.7,23.6,29.99,WNW,296,8.0,22.5,88,0.00,,---,0.03,VWS V14.01,2013-02-24 16:15:00,
2013-02-24 09:20:00,26.6,23.5,29.99,WNW,295,5.0,20.0,88,0.00,,---,0.03,VWS V14.01,2013-02-24 16:20:00,
2013-02-24 09:25:00,26.4,23.3,29.99,WNW,300,3.0,22.5,88,0.00,,---,0.03,VWS V14.01,2013-02-24 16:25:00,
2013-02-24 09:30:00,26.3,23.2,30.02,NNW,341,5.0,23.8,88,0.00,,---,0.03,VWS V14.01,2013-02-24 16:30:00,
2013-02-24 09:35:00,26.1,23.0,30.02,West,268,1.0,27.5,88,0.00,,---,0.03,VWS V14.01,2013-02-24 16:35:00,
2013-02-24 09:40:00,26.1,23.0,30.02,WNW,295,3.0,17.5,88,0.00,,---,0.03,VWS V14.01,2013-02-24 16:40:00,
2013-02-24 09:45:00,26.1,23.0,30.03,WNW,302,8.0,21.2,88,0.00,,---,0.03,VWS V14.01,2013-02-24 16:45:00,
2013-02-24 09:50:00,26.3,23.8,30.03,WNW,303,5.0,6.2,90,0.00,,---,0.03,VWS V14.01,2013-02-24 16:50:00,
2013-02-24 09:55:00,26.4,23.3,30.03,WNW,287,10.0,15.0,88,0.00,,---,0.03,VWS V14.01,2013-02-24 16:55:00,
2013-02-24 10:00:00,26.4,23.3,30.03,West,276,2.0,13.8,88,0.00,,---,0.03,VWS V14.01,2013-02-24 17:00:00,
2013-02-24 10:05:00,26.4,23.1,30.03,WNW,303,5.0,15.0,87,0.00,,---,0.03,VWS V14.01,2013-02-24 17:05:00,
2013-02-24 10:10:00,26.4,23.3,30.03,WNW,293,6.0,7.5,88,0.00,,---,0.03,VWS V14.01,2013-02-24 17:10:00,
2013-02-24 10:15:00,26.6,23.3,30.05,NW,304,9.0,13.8,87,0.00,,---,0.03,VWS V14.01,2013-02-24 17:15:00,
2013-02-24 10:21:00,26.6,23.5,30.05,NW,319,12.0,15.0,88,0.00,,---,0.03,VWS V14.01,2013-02-24 17:21:00,
2013-02-24 10:26:00,26.7,23.6,30.05,WNW,289,4.0,12.5,88,0.00,,---,0.03,VWS V14.01,2013-02-24 17:26:00,
2013-02-24 10:31:00,26.7,23.1,30.07,WNW,287,7.0,12.5,86,0.00,,---,0.03,VWS V14.01,2013-02-24 17:31:00,
2013-02-24 10:36:00,26.9,23.8,30.07,West,273,8.0,15.0,88,0.00,,---,0.03,VWS V14.01,2013-02-24 17:36:00,
2013-02-24 10:41:00,26.9,23.6,30.07,WNW,282,11.0,13.8,87,0.00,,---,0.03,VWS V14.01,2013-02-24 17:41:00,
2013-02-24 10:46:00,26.7,22.8,30.07,WNW,299,7.0,11.2,85,0.00,,---,0.03,VWS V14.01,2013-02-24 17:46:00,
2013-02-24 10:51:00,26.7,23.4,30.07,WNW,293,7.0,13.8,87,0.00,,---,0.03,VWS V14.01,2013-02-24 17:51:00,
2013-02-24 10:56:00,26.7,23.4,30.07,West,279,4.0,10.0,87,0.00,,---,0.03,VWS V14.01,2013-02-24 17:56:00,
2013-02-24 11:01:00,27.0,23.6,30.08,WNW,300,1.0,6.2,87,0.00,,---,0.03,VWS V14.01,2013-02-24 18:01:00,
2013-02-24 11:06:00,27.3,24.0,30.08,West,280,2.0,3.8,87,0.00,,---,0.03,VWS V14.01,2013-02-24 18:06:00,
2013-02-24 11:11:00,27.5,23.9,30.08,WNW,295,2.0,10.0,86,0.00,,---,0.03,VWS V14.01,2013-02-24 18:11:00,
2013-02-24 11:16:00,27.5,23.6,30.07,WNW,303,5.0,10.0,85,0.00,,---,0.03,VWS V14.01,2013-02-24 18:16:00,
2013-02-24 11:21:00,27.5,24.1,30.07,WNW,303,6.0,10.0,87,0.00,,---,0.03,VWS V14.01,2013-02-24 18:21:00,
2013-02-24 11:26:00,27.6,23.7,30.07,West,269,6.0,8.8,85,0.00,,---,0.03,VWS V14.01,2013-02-24 18:26:00,
2013-02-24 11:32:00,27.8,23.9,30.08,West,276,1.0,7.5,85,0.00,,---,0.03,VWS V14.01,2013-02-24 18:32:00,
2013-02-24 11:37:00,27.8,23.9,30.08,WNW,296,3.0,10.0,85,0.00,,---,0.03,VWS V14.01,2013-02-24 18:37:00,
2013-02-24 11:42:00,27.9,24.0,30.08,WNW,303,2.0,13.8,85,0.00,,---,0.03,VWS V14.01,2013-02-24 18:42:00,
2013-02-24 11:47:00,28.1,24.2,30.08,WNW,293,10.0,12.5,85,0.00,,---,0.03,VWS V14.01,2013-02-24 18:47:00,
2013-02-24 11:52:00,28.1,23.9,30.08,WNW,282,5.0,8.8,84,0.00,,---,0.03,VWS V14.01,2013-02-24 18:52:00,
2013-02-24 11:57:00,28.2,24.0,30.08,WNW,300,1.0,7.5,84,0.00,,---,0.03,VWS V14.01,2013-02-24 18:57:00,
2013-02-24 12:02:00,28.4,23.9,30.08,WNW,302,1.0,6.2,83,0.00,,---,0.00,VWS V14.01,2013-02-24 19:02:00,
2013-02-24 12:07:00,28.5,24.3,30.08,WNW,289,2.0,12.5,84,0.00,,---,0.00,VWS V14.01,2013-02-24 19:07:00,
2013-02-24 12:12:00,28.5,24.6,30.08,WNW,285,5.0,10.0,85,0.00,,---,0.00,VWS V14.01,2013-02-24 19:12:00,
2013-02-24 12:17:00,28.5,24.3,30.08,WNW,292,2.0,3.8,84,0.00,,---,0.00,VWS V14.01,2013-02-24 19:17:00,
2013-02-24 12:22:00,28.5,24.3,30.08,WNW,297,5.0,10.0,84,0.00,,---,0.00,VWS V14.01,2013-02-24 19:22:00,
2013-02-24 12:27:00,28.4,23.9,30.08,West,272,1.0,8.8,83,0.00,,---,0.00,VWS V14.01,2013-02-24 19:27:00,
2013-02-24 12:32:00,28.5,24.3,30.09,NW,310,2.0,8.8,84,0.00,,---,0.00,VWS V14.01,2013-02-24 19:32:00,
2013-02-24 12:38:00,28.4,23.9,30.09,WNW,289,0.0,15.0,83,0.00,,---,0.00,VWS V14.01,2013-02-24 19:38:00,
2013-02-24 12:43:00,28.5,24.0,30.09,WNW,289,1.0,8.8,83,0.00,,---,0.00,VWS V14.01,2013-02-24 19:43:00,
2013-02-24 12:48:00,28.5,24.3,30.08,West,275,1.0,12.5,84,0.00,,---,0.00,VWS V14.01,2013-02-24 19:48:00,
2013-02-24 12:53:00,28.7,24.2,30.08,WNW,299,2.0,12.5,83,0.00,,---,0.00,VWS V14.01,2013-02-24 19:53:00,
2013-02-24 12:58:00,28.7,23.9,30.08,WNW,295,1.0,11.2,82,0.00,,---,0.00,VWS V14.01,2013-02-24 19:58:00,
2013-02-24 13:03:00,28.7,23.6,30.08,WNW,303,6.0,12.5,81,0.00,,---,0.00,VWS V14.01,2013-02-24 20:03:00,
2013-02-24 13:08:00,29.0,24.5,30.08,WNW,303,0.0,8.8,83,0.00,,---,0.00,VWS V14.01,2013-02-24 20:08:00,
2013-02-24 13:13:00,29.1,24.3,30.08,WNW,303,10.0,12.5,82,0.00,,---,0.00,VWS V14.01,2013-02-24 20:13:00,
2013-02-24 13:18:00,29.1,24.3,30.10,WNW,300,3.0,8.8,82,0.00,,---,0.00,VWS V14.01,2013-02-24 20:18:00,
2013-02-24 13:23:00,29.4,24.3,30.10,WNW,302,0.0,5.0,81,0.00,,---,0.00,VWS V14.01,2013-02-24 20:23:00,
2013-02-24 13:28:00,29.5,24.4,30.10,WNW,293,6.0,7.5,81,0.00,,---,0.00,VWS V14.01,2013-02-24 20:28:00,
2013-02-24 13:33:00,29.7,24.3,30.09,WNW,302,1.0,7.5,80,0.00,,---,0.00,VWS V14.01,2013-02-24 20:33:00,
2013-02-24 13:38:00,29.5,23.8,30.09,WNW,290,5.0,16.2,79,0.00,,---,0.00,VWS V14.01,2013-02-24 20:38:00,
2013-02-24 13:43:00,29.4,23.7,30.09,NW,311,7.0,15.0,79,0.00,,---,0.00,VWS V14.01,2013-02-24 20:43:00,
2013-02-24 13:48:00,29.4,23.7,30.10,WNW,296,2.0,11.2,79,0.00,,---,0.00,VWS V14.01,2013-02-24 20:48:00,
2013-02-24 13:53:00,29.3,23.3,30.10,NW,313,10.0,21.2,78,0.00,,---,0.00,VWS V14.01,2013-02-24 20:53:00,
2013-02-24 13:58:00,29.1,23.1,30.10,WNW,282,1.0,13.8,78,0.00,,---,0.00,VWS V14.01,2013-02-24 20:58:00,
2013-02-24 14:03:00,29.1,22.8,30.11,NW,307,5.0,15.0,77,0.00,,---,0.00,VWS V14.01,2013-02-24 21:03:00,
2013-02-24 14:08:00,29.0,23.0,30.11,WNW,296,2.0,8.8,78,0.00,,---,0.00,VWS V14.01,2013-02-24 21:08:00,
2013-02-24 14:13:00,29.1,23.1,30.11,West,279,12.0,15.0,78,0.00,,---,0.00,VWS V14.01,2013-02-24 21:13:00,
2013-02-24 14:19:00,29.0,23.3,30.10,WNW,302,4.0,7.5,79,0.00,,---,0.00,VWS V14.01,2013-02-24 21:19:00,
2013-02-24 14:24:00,29.0,23.3,30.10,NW,314,5.0,8.8,79,0.00,,---,0.00,VWS V14.01,2013-02-24 21:24:00,
2013-02-24 14:29:00,28.8,22.5,30.10,WNW,300,9.0,13.8,77,0.00,,---,0.00,VWS V14.01,2013-02-24 21:29:00,
2013-02-24 14:34:00,28.5,22.8,30.11,NW,310,2.0,8.8,79,0.00,,---,0.00,VWS V14.01,2013-02-24 21:34:00,
2013-02-24 14:39:00,28.4,22.7,30.11,NW,307,10.0,15.0,79,0.00,,---,0.00,VWS V14.01,2013-02-24 21:39:00,
2013-02-24 14:44:00,28.2,22.8,30.11,NNW,338,2.0,13.8,80,0.00,,---,0.00,VWS V14.01,2013-02-24 21:44:00,
2013-02-24 14:49:00,28.2,23.1,30.12,WNW,302,2.0,13.8,81,0.00,,---,0.00,VWS V14.01,2013-02-24 21:49:00,
2013-02-24 14:54:00,28.2,23.1,30.12,NNW,328,3.0,10.0,81,0.00,,---,0.00,VWS V14.01,2013-02-24 21:54:00,
2013-02-24 14:59:00,28.1,22.4,30.13,NW,324,7.0,12.5,79,0.00,,---,0.00,VWS V14.01,2013-02-24 21:59:00,
2013-02-24 15:04:00,28.1,23.0,30.13,WNW,290,1.0,12.5,81,0.00,,---,0.00,VWS V14.01,2013-02-24 22:04:00,
2013-02-24 15:09:00,28.2,23.7,30.13,NW,306,2.0,6.2,83,0.01,,---,0.01,VWS V14.01,2013-02-24 22:09:00,
2013-02-24 15:14:00,28.2,23.1,30.14,WNW,303,2.0,8.8,81,0.01,,---,0.01,VWS V14.01,2013-02-24 22:14:00,
2013-02-24 15:19:00,28.2,23.1,30.14,WNW,296,4.0,15.0,81,0.01,,---,0.01,VWS V14.01,2013-02-24 22:19:00,
2013-02-24 15:24:00,27.9,22.8,30.14,NW,304,1.0,15.0,81,0.01,,---,0.01,VWS V14.01,2013-02-24 22:24:00,
2013-02-24 15:29:00,27.9,22.8,30.14,WNW,303,2.0,15.0,81,0.01,,---,0.01,VWS V14.01,2013-02-24 22:29:00,
2013-02-24 15:34:00,27.9,23.1,30.14,WNW,297,5.0,10.0,82,0.01,,---,0.01,VWS V14.01,2013-02-24 22:34:00,
2013-02-24 15:39:00,28.1,23.0,30.14,NW,326,5.0,12.5,81,0.01,,---,0.01,VWS V14.01,2013-02-24 22:39:00,
2013-02-24 15:45:00,28.1,23.0,30.15,NNW,341,3.0,8.8,81,0.01,,---,0.01,VWS V14.01,2013-02-24 22:45:00,
2013-02-24 15:50:00,28.1,23.0,30.15,WNW,303,2.0,13.8,81,0.01,,---,0.01,VWS V14.01,2013-02-24 22:50:00,
2013-02-24 15:55:00,28.1,23.0,30.15,NW,309,1.0,8.8,81,0.01,,---,0.01,VWS V14.01,2013-02-24 22:55:00,
2013-02-24 16:00:00,28.1,22.7,30.16,NW,311,3.0,12.5,80,0.01,,---,0.01,VWS V14.01,2013-02-24 23:00:00,
2013-02-24 16:05:00,27.9,22.5,30.16,WNW,290,2.0,8.8,80,0.01,,---,0.01,VWS V14.01,2013-02-24 23:05:00,
2013-02-24 16:10:00,27.9,22.8,30.16,WNW,303,2.0,13.8,81,0.00,,---,0.01,VWS V14.01,2013-02-24 23:10:00,
2013-02-24 16:15:00,28.1,23.0,30.16,WNW,303,7.0,10.0,81,0.00,,---,0.01,VWS V14.01,2013-02-24 23:15:00,
2013-02-24 16:20:00,27.9,22.5,30.16,WNW,303,0.0,15.0,80,0.00,,---,0.01,VWS V14.01,2013-02-24 23:20:00,
2013-02-24 16:25:00,28.1,22.4,30.16,WNW,303,2.0,10.0,79,0.00,,---,0.01,VWS V14.01,2013-02-24 23:25:00,
2013-02-24 16:30:00,28.1,22.4,30.17,NW,313,5.0,12.5,79,0.00,,---,0.01,VWS V14.01,2013-02-24 23:30:00,
2013-02-24 16:35:00,28.1,22.4,30.17,WNW,287,2.0,13.8,79,0.00,,---,0.01,VWS V14.01,2013-02-24 23:35:00,
2013-02-24 16:40:00,27.9,22.5,30.17,NNW,337,0.0,15.0,80,0.00,,---,0.01,VWS V14.01,2013-02-24 23:40:00,
2013-02-24 16:45:00,27.9,22.2,30.17,WNW,303,1.0,6.2,79,0.00,,---,0.01,VWS V14.01,2013-02-24 23:45:00,
2013-02-24 16:50:00,27.9,22.2,30.17,WNW,303,1.0,10.0,79,0.00,,---,0.01,VWS V14.01,2013-02-24 23:50:00,
2013-02-24 16:55:00,27.8,22.1,30.17,NW,313,1.0,12.5,79,0.00,,---,0.01,VWS V14.01,2013-02-24 23:55:00,
2013-02-24 17:00:00,27.8,22.1,30.18,NW,313,1.0,2.5,79,0.00,,---,0.01,VWS V14.01,2013-02-25 00:00:00,
2013-02-24 17:05:00,27.6,22.2,30.18,WNW,303,1.0,6.2,80,0.00,,---,0.01,VWS V14.01,2013-02-25 00:05:00,
2013-02-24 17:10:00,27.6,22.2,30.18,WNW,303,0.0,3.8,80,0.00,,---,0.01,VWS V14.01,2013-02-25 00:10:00,
2013-02-24 17:15:00,27.6,22.2,30.19,WNW,286,2.0,3.8,80,0.00,,---,0.01,VWS V14.01,2013-02-25 00:15:00,
2013-02-24 17:20:00,27.5,22.1,30.19,NW,307,1.0,3.8,80,0.00,,---,0.01,VWS V14.01,2013-02-25 00:20:00,
2013-02-24 17:25:00,27.3,22.2,30.19,NW,311,0.0,3.8,81,0.00,,---,0.01,VWS V14.01,2013-02-25 00:25:00,
2013-02-24 17:30:00,27.2,22.1,30.20,NNW,341,1.0,2.5,81,0.00,,---,0.01,VWS V14.01,2013-02-25 00:30:00,
2013-02-24 17:35:00,27.2,22.1,30.20,NNW,335,0.0,3.8,81,0.00,,---,0.01,VWS V14.01,2013-02-25 00:35:00,
2013-02-24 17:40:00,27.0,22.0,30.20,NW,326,1.0,3.8,81,0.00,,---,0.01,VWS V14.01,2013-02-25 00:40:00,
2013-02-24 17:45:00,27.0,22.0,30.21,NNW,331,1.0,3.8,81,0.00,,---,0.01,VWS V14.01,2013-02-25 00:45:00,
2013-02-24 17:50:00,26.9,21.9,30.21,NNW,331,2.0,3.8,81,0.00,,---,0.01,VWS V14.01,2013-02-25 00:50:00,
2013-02-24 17:55:00,26.7,21.7,30.21,NW,321,0.0,3.8,81,0.00,,---,0.01,VWS V14.01,2013-02-25 00:55:00,
2013-02-24 18:00:00,26.7,22.0,30.21,NW,316,0.0,3.8,82,0.00,,---,0.01,VWS V14.01,2013-02-25 01:00:00,
2013-02-24 18:05:00,26.7,22.0,30.21,NW,311,1.0,3.8,82,0.00,,---,0.01,VWS V14.01,2013-02-25 01:05:00,
2013-02-24 18:10:00,26.7,22.0,30.21,NW,306,2.0,3.8,82,0.00,,---,0.01,VWS V14.01,2013-02-25 01:10:00,
2013-02-24 18:15:00,26.6,21.9,30.21,NNW,331,0.0,2.5,82,0.00,,---,0.01,VWS V14.01,2013-02-25 01:15:00,
2013-02-24 18:20:00,26.6,22.1,30.21,NNW,348,0.0,2.5,83,0.00,,---,0.01,VWS V14.01,2013-02-25 01:20:00,
2013-02-24 18:25:00,26.6,22.4,30.21,NNW,328,1.0,2.5,84,0.00,,---,0.01,VWS V14.01,2013-02-25 01:25:00,
2013-02-24 18:30:00,26.4,22.0,30.23,NNW,333,0.0,2.5,83,0.00,,---,0.01,VWS V14.01,2013-02-25 01:30:00,
2013-02-24 18:35:00,26.4,22.0,30.23,NNW,333,0.0,0.0,83,0.00,,---,0.01,VWS V14.01,2013-02-25 01:35:00,
2013-02-24 18:40:00,26.4,22.0,30.23,NNW,333,0.0,1.2,83,0.00,,---,0.01,VWS V14.01,2013-02-25 01:40:00,
2013-02-24 18:45:00,26.4,22.2,30.24,NW,311,2.0,3.8,84,0.00,,---,0.01,VWS V14.01,2013-02-25 01:45:00,
2013-02-24 18:50:00,26.3,21.9,30.24,NW,317,1.0,2.5,83,0.00,,---,0.01,VWS V14.01,2013-02-25 01:50:00,
2013-02-24 18:55:00,26.3,21.9,30.24,NNW,343,0.0,3.8,83,0.00,,---,0.01,VWS V14.01,2013-02-25 01:55:00,
2013-02-24 19:00:00,26.1,21.6,30.24,NNW,341,1.0,1.2,83,0.00,,---,0.01,VWS V14.01,2013-02-25 02:00:00,
2013-02-24 19:05:00,26.1,21.6,30.24,NNW,341,1.0,1.2,83,0.00,,---,0.01,VWS V14.01,2013-02-25 02:05:00,
2013-02-24 19:10:00,25.8,21.4,30.24,NNW,341,0.0,2.5,83,0.00,,---,0.01,VWS V14.01,2013-02-25 02:10:00,
2013-02-24 19:15:00,25.7,21.3,30.25,NNW,341,0.0,1.2,83,0.00,,---,0.01,VWS V14.01,2013-02-25 02:15:00,
2013-02-24 19:20:00,25.7,21.3,30.25,NNW,341,0.0,0.0,83,0.00,,---,0.01,VWS V14.01,2013-02-25 02:20:00,
2013-02-24 19:25:00,25.6,21.2,30.25,NNW,341,0.0,0.0,83,0.00,,---,0.01,VWS V14.01,2013-02-25 02:25:00,
2013-02-24 19:30:00,25.4,21.0,30.26,NNW,341,0.0,0.0,83,0.00,,---,0.01,VWS V14.01,2013-02-25 02:30:00,
2013-02-24 19:35:00,25.1,20.7,30.26,NNW,341,0.0,0.0,83,0.00,,---,0.01,VWS V14.01,2013-02-25 02:35:00,
2013-02-24 19:40:00,24.7,20.3,30.26,NNW,341,0.0,0.0,83,0.00,,---,0.01,VWS V14.01,2013-02-25 02:40:00,
2013-02-24 19:45:00,23.9,19.2,30.27,NNW,341,0.0,0.0,82,0.00,,---,0.01,VWS V14.01,2013-02-25 02:45:00,
2013-02-24 19:50:00,23.0,18.0,30.27,NNW,341,0.0,0.0,81,0.00,,---,0.01,VWS V14.01,2013-02-25 02:50:00,
2013-02-24 19:55:00,22.7,18.0,30.27,NNW,341,0.0,0.0,82,0.00,,---,0.01,VWS V14.01,2013-02-25 02:55:00,
2013-02-24 20:00:00,22.7,18.0,30.28,NNW,341,0.0,0.0,82,0.00,,---,0.01,VWS V14.01,2013-02-25 03:00:00,
2013-02-24 20:05:00,22.5,17.9,30.28,NNW,343,0.0,0.0,82,0.00,,---,0.01,VWS V14.01,2013-02-25 03:05:00,
2013-02-24 20:10:00,22.4,17.8,30.28,NNW,341,0.0,0.0,82,0.00,,---,0.01,VWS V14.01,2013-02-25 03:10:00,
2013-02-24 20:15:00,22.2,17.5,30.30,NNW,341,0.0,0.0,82,0.00,,---,0.01,VWS V14.01,2013-02-25 03:15:00,
2013-02-24 20:20:00,21.8,17.2,30.30,NNW,341,0.0,0.0,82,0.00,,---,0.01,VWS V14.01,2013-02-25 03:20:00,
2013-02-24 20:25:00,21.8,17.2,30.30,NNW,341,0.0,0.0,82,0.00,,---,0.01,VWS V14.01,2013-02-25 03:25:00,
2013-02-24 20:30:00,21.8,17.4,30.30,NNW,343,0.0,0.0,83,0.00,,---,0.01,VWS V14.01,2013-02-25 03:30:00,
2013-02-24 20:35:00,21.8,17.4,30.30,NNW,341,0.0,0.0,83,0.00,,---,0.01,VWS V14.01,2013-02-25 03:35:00,
2013-02-24 20:40:00,21.9,17.8,30.30,NNW,341,0.0,0.0,84,0.00,,---,0.01,VWS V14.01,2013-02-25 03:40:00,
2013-02-24 20:45:00,21.9,17.8,30.30,NNW,343,0.0,0.0,84,0.00,,---,0.01,VWS V14.01,2013-02-25 03:45:00,
2013-02-24 20:50:00,21.8,17.7,30.30,NNW,341,0.0,0.0,84,0.00,,---,0.01,VWS V14.01,2013-02-25 03:50:00,
2013-02-24 20:55:00,21.6,17.5,30.30,NNW,343,0.0,0.0,84,0.00,,---,0.01,VWS V14.01,2013-02-25 03:55:00,
2013-02-24 21:00:00,21.6,17.5,30.30,NNW,343,0.0,0.0,84,0.00,,---,0.01,VWS V14.01,2013-02-25 04:00:00,
2013-02-24 21:05:00,21.6,17.5,30.30,NNW,343,0.0,0.0,84,0.00,,---,0.01,VWS V14.01,2013-02-25 04:05:00,
2013-02-24 21:10:00,21.8,17.7,30.30,NNW,343,0.0,0.0,84,0.00,,---,0.01,VWS V14.01,2013-02-25 04:10:00,
2013-02-24 21:15:00,21.6,17.5,30.30,NNW,343,0.0,0.0,84,0.00,,---,0.01,VWS V14.01,2013-02-25 04:15:00,
2013-02-24 21:20:00,21.4,17.3,30.30,NNW,343,0.0,0.0,84,0.00,,---,0.01,VWS V14.01,2013-02-25 04:20:00,
2013-02-24 21:25:00,21.4,17.3,30.30,NNW,343,0.0,0.0,84,0.00,,---,0.01,VWS V14.01,2013-02-25 04:25:00,
2013-02-24 21:30:00,21.6,17.5,30.31,NNW,343,0.0,0.0,84,0.00,,---,0.01,VWS V14.01,2013-02-25 04:30:00,
2013-02-24 21:35:00,21.8,18.0,30.31,NNW,344,0.0,0.0,85,0.00,,---,0.01,VWS V14.01,2013-02-25 04:35:00,
2013-02-24 21:40:00,22.2,18.4,30.31,NNW,343,0.0,0.0,85,0.00,,---,0.01,VWS V14.01,2013-02-25 04:40:00,
2013-02-24 21:45:00,22.5,19.0,30.31,NNW,343,0.0,0.0,86,0.00,,---,0.01,VWS V14.01,2013-02-25 04:45:00,
2013-02-24 21:50:00,22.9,19.4,30.31,NNW,344,0.0,1.2,86,0.00,,---,0.01,VWS V14.01,2013-02-25 04:50:00,
2013-02-24 21:55:00,23.0,19.5,30.31,NNW,343,1.0,1.2,86,0.00,,---,0.01,VWS V14.01,2013-02-25 04:55:00,
2013-02-24 22:00:00,23.0,19.5,30.31,NNW,344,1.0,1.2,86,0.00,,---,0.01,VWS V14.01,2013-02-25 05:00:00,
2013-02-24 22:01:00,22.9,19.4,30.31,NNW,344,1.0,2.5,86,0.00,,---,0.01,VWS V14.01,2013-02-25 05:01:00,
2013-02-24 22:06:00,22.4,18.6,30.31,North,359,1.0,2.5,85,0.00,,---,0.01,VWS V14.01,2013-02-25 05:06:00,
2013-02-24 22:11:00,22.2,18.4,30.31,North,4,0.0,0.0,85,0.00,,---,0.01,VWS V14.01,2013-02-25 05:11:00,
2013-02-24 22:16:00,22.1,18.3,30.30,North,359,0.0,0.0,85,0.00,,---,0.01,VWS V14.01,2013-02-25 05:16:00,
2013-02-24 22:21:00,22.1,18.3,30.30,ENE,70,0.0,0.0,85,0.00,,---,0.01,VWS V14.01,2013-02-25 05:21:00,
2013-02-24 22:26:00,21.9,18.1,30.30,ESE,104,0.0,0.0,85,0.00,,---,0.01,VWS V14.01,2013-02-25 05:26:00,
2013-02-24 22:31:00,21.8,18.0,30.30,East,95,0.0,0.0,85,0.00,,---,0.01,VWS V14.01,2013-02-25 05:31:00,
2013-02-24 22:36:00,21.8,18.0,30.30,East,94,0.0,0.0,85,0.00,,---,0.01,VWS V14.01,2013-02-25 05:36:00,
2013-02-24 22:42:00,21.8,18.0,30.30,North,358,0.0,0.0,85,0.00,,---,0.01,VWS V14.01,2013-02-25 05:42:00,
2013-02-24 22:47:00,21.4,17.6,30.30,North,357,0.0,0.0,85,0.00,,---,0.01,VWS V14.01,2013-02-25 05:47:00,
2013-02-24 22:52:00,20.8,16.7,30.30,North,357,0.0,0.0,84,0.00,,---,0.01,VWS V14.01,2013-02-25 05:52:00,
2013-02-24 22:57:00,20.5,16.4,30.30,North,357,0.0,0.0,84,0.00,,---,0.01,VWS V14.01,2013-02-25 05:57:00,
2013-02-24 23:02:00,20.5,16.4,30.30,North,358,0.0,0.0,84,0.00,,---,0.01,VWS V14.01,2013-02-25 06:02:00,
2013-02-24 23:07:00,20.6,16.5,30.30,North,358,0.0,0.0,84,0.00,,---,0.01,VWS V14.01,2013-02-25 06:07:00,
2013-02-24 23:12:00,20.8,17.0,30.30,North,358,0.0,0.0,85,0.00,,---,0.01,VWS V14.01,2013-02-25 06:12:00,
2013-02-24 23:17:00,21.0,17.2,30.29,North,358,0.0,0.0,85,0.00,,---,0.01,VWS V14.01,2013-02-25 06:17:00,
2013-02-24 23:22:00,21.1,17.3,30.29,North,358,0.0,0.0,85,0.00,,---,0.01,VWS V14.01,2013-02-25 06:22:00,
2013-02-24 23:27:00,20.5,16.4,30.29,NNW,333,0.0,1.2,84,0.00,,---,0.01,VWS V14.01,2013-02-25 06:27:00,
2013-02-24 23:32:00,20.3,16.2,30.28,NNW,333,0.0,0.0,84,0.00,,---,0.01,VWS V14.01,2013-02-25 06:32:00,
2013-02-24 23:37:00,20.3,16.2,30.28,NNW,334,0.0,0.0,84,0.00,,---,0.01,VWS V14.01,2013-02-25 06:37:00,
2013-02-24 23:42:00,20.5,16.4,30.28,NNW,334,0.0,0.0,84,0.00,,---,0.01,VWS V14.01,2013-02-25 06:42:00,
2013-02-24 23:47:00,20.2,16.1,30.28,NNW,334,0.0,0.0,84,0.00,,---,0.01,VWS V14.01,2013-02-25 06:47:00,
2013-02-24 23:52:00,19.9,15.9,30.28,NNW,334,0.0,0.0,84,0.00,,---,0.01,VWS V14.01,2013-02-25 06:52:00,
2013-02-24 23:57:00,19.9,15.9,30.28,NNW,334,0.0,0.0,84,0.00,,---,0.01,VWS V14.01,2013-02-25 06:57:00,